sensor_id;sensor_type;location;lat;lon;timestamp;P1;durP1;ratioP1;P2;durP2;ratioP2
56233;SDS011;42141;53.240;6.580;2022-09-09T00:02:23;10.40;;;6.35;;
56233;SDS011;42141;53.240;6.580;2022-09-09T00:05:00;11.35;;;6.38;;
56233;SDS011;42141;53.240;6.580;2022-09-09T00:07:47;9.85;;;8.13;;
56233;SDS011;42141;53.240;6.580;2022-09-09T00:15:47;9.40;;;6.57;;
56233;SDS011;42141;53.240;6.580;2022-09-09T00:18:26;10.38;;;7.13;;
56233;SDS011;42141;53.240;6.580;2022-09-09T00:21:15;10.38;;;7.40;;
56233;SDS011;42141;53.240;6.580;2022-09-09T00:23:47;10.52;;;6.75;;
56233;SDS011;42141;53.240;6.580;2022-09-09T00:29:14;11.05;;;8.23;;
56233;SDS011;42141;53.240;6.580;2022-09-09T00:32:14;12.18;;;5.80;;
56233;SDS011;42141;53.240;6.580;2022-09-09T00:34:52;15.15;;;7.88;;
56233;SDS011;42141;53.240;6.580;2022-09-09T00:37:37;14.48;;;8.30;;
56233;SDS011;42141;53.240;6.580;2022-09-09T00:40:11;12.50;;;8.27;;
56233;SDS011;42141;53.240;6.580;2022-09-09T00:42:47;11.65;;;8.02;;
56233;SDS011;42141;53.240;6.580;2022-09-09T00:48:26;11.77;;;7.97;;
56233;SDS011;42141;53.240;6.580;2022-09-09T00:51:15;13.40;;;8.18;;
56233;SDS011;42141;53.240;6.580;2022-09-09T00:56:53;13.27;;;8.73;;
56233;SDS011;42141;53.240;6.580;2022-09-09T00:59:52;11.60;;;7.95;;
56233;SDS011;42141;53.240;6.580;2022-09-09T01:08:00;11.65;;;6.72;;
56233;SDS011;42141;53.240;6.580;2022-09-09T01:10:30;8.60;;;5.32;;
56233;SDS011;42141;53.240;6.580;2022-09-09T01:15:59;5.75;;;5.15;;
56233;SDS011;42141;53.240;6.580;2022-09-09T01:18:28;8.23;;;5.60;;
56233;SDS011;42141;53.240;6.580;2022-09-09T01:24:15;8.07;;;5.13;;
56233;SDS011;42141;53.240;6.580;2022-09-09T01:26:46;6.55;;;5.35;;
56233;SDS011;42141;53.240;6.580;2022-09-09T01:29:16;8.65;;;5.53;;
56233;SDS011;42141;53.240;6.580;2022-09-09T01:31:57;9.63;;;5.63;;
56233;SDS011;42141;53.240;6.580;2022-09-09T01:34:35;7.07;;;6.25;;
56233;SDS011;42141;53.240;6.580;2022-09-09T01:37:04;9.07;;;5.60;;
56233;SDS011;42141;53.240;6.580;2022-09-09T01:39:33;7.85;;;5.50;;
56233;SDS011;42141;53.240;6.580;2022-09-09T01:42:00;9.57;;;5.22;;
56233;SDS011;42141;53.240;6.580;2022-09-09T01:44:28;8.25;;;5.20;;
56233;SDS011;42141;53.240;6.580;2022-09-09T01:46:55;6.75;;;5.20;;
56233;SDS011;42141;53.240;6.580;2022-09-09T01:49:20;8.57;;;5.25;;
56233;SDS011;42141;53.240;6.580;2022-09-09T01:51:48;7.20;;;5.28;;
56233;SDS011;42141;53.240;6.580;2022-09-09T01:54:17;8.57;;;5.35;;
56233;SDS011;42141;53.240;6.580;2022-09-09T02:02:27;11.25;;;5.47;;
56233;SDS011;42141;53.240;6.580;2022-09-09T02:04:56;8.40;;;6.00;;
56233;SDS011;42141;53.240;6.580;2022-09-09T02:10:26;7.63;;;5.47;;
56233;SDS011;42141;53.240;6.580;2022-09-09T02:13:02;9.35;;;6.43;;
56233;SDS011;42141;53.240;6.580;2022-09-09T02:15:34;8.70;;;6.00;;
56233;SDS011;42141;53.240;6.580;2022-09-09T02:18:00;13.73;;;7.88;;
56233;SDS011;42141;53.240;6.580;2022-09-09T02:20:31;10.35;;;7.07;;
56233;SDS011;42141;53.240;6.580;2022-09-09T02:22:58;10.15;;;6.40;;
56233;SDS011;42141;53.240;6.580;2022-09-09T02:25:26;15.02;;;8.75;;
56233;SDS011;42141;53.240;6.580;2022-09-09T02:27:54;12.27;;;7.57;;
56233;SDS011;42141;53.240;6.580;2022-09-09T02:30:23;11.95;;;7.93;;
56233;SDS011;42141;53.240;6.580;2022-09-09T02:32:49;14.95;;;7.75;;
56233;SDS011;42141;53.240;6.580;2022-09-09T02:35:19;14.48;;;9.02;;
56233;SDS011;42141;53.240;6.580;2022-09-09T02:37:47;11.93;;;8.15;;
56233;SDS011;42141;53.240;6.580;2022-09-09T02:40:16;10.43;;;8.55;;
56233;SDS011;42141;53.240;6.580;2022-09-09T02:42:43;17.17;;;8.98;;
56233;SDS011;42141;53.240;6.580;2022-09-09T02:45:14;11.45;;;8.02;;
56233;SDS011;42141;53.240;6.580;2022-09-09T02:47:50;15.45;;;8.25;;
56233;SDS011;42141;53.240;6.580;2022-09-09T02:53:17;12.95;;;9.48;;
56233;SDS011;42141;53.240;6.580;2022-09-09T02:55:48;13.02;;;9.00;;
56233;SDS011;42141;53.240;6.580;2022-09-09T02:58:20;9.55;;;8.60;;
56233;SDS011;42141;53.240;6.580;2022-09-09T03:00:47;11.40;;;8.30;;
56233;SDS011;42141;53.240;6.580;2022-09-09T03:03:14;9.45;;;7.85;;
56233;SDS011;42141;53.240;6.580;2022-09-09T03:05:42;12.68;;;7.78;;
56233;SDS011;42141;53.240;6.580;2022-09-09T03:08:08;14.85;;;8.10;;
56233;SDS011;42141;53.240;6.580;2022-09-09T03:10:35;9.73;;;7.82;;
56233;SDS011;42141;53.240;6.580;2022-09-09T03:13:02;13.18;;;8.18;;
56233;SDS011;42141;53.240;6.580;2022-09-09T03:15:30;11.88;;;8.18;;
56233;SDS011;42141;53.240;6.580;2022-09-09T03:17:57;16.15;;;8.02;;
56233;SDS011;42141;53.240;6.580;2022-09-09T03:20:27;11.57;;;7.85;;
56233;SDS011;42141;53.240;6.580;2022-09-09T03:22:54;10.27;;;7.20;;
56233;SDS011;42141;53.240;6.580;2022-09-09T03:25:21;11.15;;;7.85;;
56233;SDS011;42141;53.240;6.580;2022-09-09T03:27:51;11.32;;;7.30;;
56233;SDS011;42141;53.240;6.580;2022-09-09T03:30:20;10.98;;;6.85;;
56233;SDS011;42141;53.240;6.580;2022-09-09T03:32:46;11.88;;;6.63;;
56233;SDS011;42141;53.240;6.580;2022-09-09T03:35:12;8.38;;;6.47;;
56233;SDS011;42141;53.240;6.580;2022-09-09T03:37:38;10.20;;;6.47;;
56233;SDS011;42141;53.240;6.580;2022-09-09T03:40:04;12.20;;;6.25;;
56233;SDS011;42141;53.240;6.580;2022-09-09T03:42:30;7.60;;;5.85;;
56233;SDS011;42141;53.240;6.580;2022-09-09T03:44:56;12.95;;;6.10;;
56233;SDS011;42141;53.240;6.580;2022-09-09T03:47:22;17.15;;;6.00;;
56233;SDS011;42141;53.240;6.580;2022-09-09T03:49:48;8.73;;;5.82;;
56233;SDS011;42141;53.240;6.580;2022-09-09T03:52:14;8.50;;;4.97;;
56233;SDS011;42141;53.240;6.580;2022-09-09T03:54:41;9.93;;;5.07;;
56233;SDS011;42141;53.240;6.580;2022-09-09T03:57:07;5.53;;;4.22;;
56233;SDS011;42141;53.240;6.580;2022-09-09T03:59:34;5.97;;;4.22;;
56233;SDS011;42141;53.240;6.580;2022-09-09T04:02:00;7.40;;;3.60;;
56233;SDS011;42141;53.240;6.580;2022-09-09T04:04:27;4.05;;;3.03;;
56233;SDS011;42141;53.240;6.580;2022-09-09T04:06:53;4.95;;;3.20;;
56233;SDS011;42141;53.240;6.580;2022-09-09T04:09:18;6.93;;;2.88;;
56233;SDS011;42141;53.240;6.580;2022-09-09T04:11:44;4.28;;;2.85;;
56233;SDS011;42141;53.240;6.580;2022-09-09T04:14:11;6.13;;;2.50;;
56233;SDS011;42141;53.240;6.580;2022-09-09T04:16:37;5.35;;;2.33;;
56233;SDS011;42141;53.240;6.580;2022-09-09T04:19:03;7.32;;;2.35;;
56233;SDS011;42141;53.240;6.580;2022-09-09T04:21:30;5.97;;;2.72;;
56233;SDS011;42141;53.240;6.580;2022-09-09T04:23:56;5.15;;;2.08;;
56233;SDS011;42141;53.240;6.580;2022-09-09T04:26:21;7.15;;;2.50;;
56233;SDS011;42141;53.240;6.580;2022-09-09T04:28:47;3.88;;;1.98;;
56233;SDS011;42141;53.240;6.580;2022-09-09T04:31:20;7.05;;;2.53;;
56233;SDS011;42141;53.240;6.580;2022-09-09T04:33:48;7.18;;;2.15;;
56233;SDS011;42141;53.240;6.580;2022-09-09T04:36:15;4.10;;;1.80;;
56233;SDS011;42141;53.240;6.580;2022-09-09T04:38:42;4.15;;;1.92;;
56233;SDS011;42141;53.240;6.580;2022-09-09T04:41:09;5.82;;;2.45;;
56233;SDS011;42141;53.240;6.580;2022-09-09T04:43:36;8.60;;;2.13;;
56233;SDS011;42141;53.240;6.580;2022-09-09T04:46:02;6.95;;;1.95;;
56233;SDS011;42141;53.240;6.580;2022-09-09T04:48:29;6.15;;;2.25;;
56233;SDS011;42141;53.240;6.580;2022-09-09T04:51:03;6.00;;;2.17;;
56233;SDS011;42141;53.240;6.580;2022-09-09T04:53:30;7.28;;;2.58;;
56233;SDS011;42141;53.240;6.580;2022-09-09T04:56:06;10.10;;;2.30;;
56233;SDS011;42141;53.240;6.580;2022-09-09T04:58:32;5.32;;;2.47;;
56233;SDS011;42141;53.240;6.580;2022-09-09T05:03:53;8.20;;;2.95;;
56233;SDS011;42141;53.240;6.580;2022-09-09T05:06:19;6.70;;;2.90;;
56233;SDS011;42141;53.240;6.580;2022-09-09T05:08:46;5.68;;;2.95;;
56233;SDS011;42141;53.240;6.580;2022-09-09T05:11:16;7.78;;;3.78;;
56233;SDS011;42141;53.240;6.580;2022-09-09T05:13:52;4.57;;;3.40;;
56233;SDS011;42141;53.240;6.580;2022-09-09T05:16:19;6.93;;;4.82;;
56233;SDS011;42141;53.240;6.580;2022-09-09T05:18:46;8.90;;;3.60;;
56233;SDS011;42141;53.240;6.580;2022-09-09T05:21:12;7.75;;;3.95;;
56233;SDS011;42141;53.240;6.580;2022-09-09T05:23:39;7.18;;;4.18;;
56233;SDS011;42141;53.240;6.580;2022-09-09T05:26:05;8.27;;;5.03;;
56233;SDS011;42141;53.240;6.580;2022-09-09T05:28:34;7.32;;;5.03;;
56233;SDS011;42141;53.240;6.580;2022-09-09T05:31:04;8.38;;;4.97;;
56233;SDS011;42141;53.240;6.580;2022-09-09T05:33:35;10.55;;;5.40;;
56233;SDS011;42141;53.240;6.580;2022-09-09T05:36:02;9.25;;;5.32;;
56233;SDS011;42141;53.240;6.580;2022-09-09T05:38:30;11.32;;;5.63;;
56233;SDS011;42141;53.240;6.580;2022-09-09T05:40:57;10.05;;;6.13;;
56233;SDS011;42141;53.240;6.580;2022-09-09T05:43:23;11.02;;;5.43;;
56233;SDS011;42141;53.240;6.580;2022-09-09T05:46:00;11.10;;;5.55;;
56233;SDS011;42141;53.240;6.580;2022-09-09T05:48:37;12.13;;;6.20;;
56233;SDS011;42141;53.240;6.580;2022-09-09T05:51:04;8.43;;;6.35;;
56233;SDS011;42141;53.240;6.580;2022-09-09T05:53:32;11.18;;;6.70;;
56233;SDS011;42141;53.240;6.580;2022-09-09T05:56:06;11.75;;;6.95;;
56233;SDS011;42141;53.240;6.580;2022-09-09T05:58:45;10.65;;;6.75;;
56233;SDS011;42141;53.240;6.580;2022-09-09T06:01:18;11.63;;;7.47;;
56233;SDS011;42141;53.240;6.580;2022-09-09T06:03:46;12.65;;;7.07;;
56233;SDS011;42141;53.240;6.580;2022-09-09T06:06:14;14.65;;;7.50;;
56233;SDS011;42141;53.240;6.580;2022-09-09T06:08:43;19.25;;;7.13;;
56233;SDS011;42141;53.240;6.580;2022-09-09T06:11:14;10.52;;;6.68;;
56233;SDS011;42141;53.240;6.580;2022-09-09T06:13:43;11.85;;;6.80;;
56233;SDS011;42141;53.240;6.580;2022-09-09T06:16:09;11.02;;;7.05;;
56233;SDS011;42141;53.240;6.580;2022-09-09T06:18:37;11.75;;;7.03;;
56233;SDS011;42141;53.240;6.580;2022-09-09T06:21:04;10.18;;;7.22;;
56233;SDS011;42141;53.240;6.580;2022-09-09T06:23:32;11.48;;;7.35;;
56233;SDS011;42141;53.240;6.580;2022-09-09T06:26:05;15.45;;;8.13;;
56233;SDS011;42141;53.240;6.580;2022-09-09T06:28:33;12.15;;;6.95;;
56233;SDS011;42141;53.240;6.580;2022-09-09T06:31:06;10.60;;;7.35;;
56233;SDS011;42141;53.240;6.580;2022-09-09T06:33:34;10.10;;;7.15;;
56233;SDS011;42141;53.240;6.580;2022-09-09T06:36:07;7.50;;;6.50;;
56233;SDS011;42141;53.240;6.580;2022-09-09T06:38:37;9.30;;;6.28;;
56233;SDS011;42141;53.240;6.580;2022-09-09T06:41:03;9.68;;;6.57;;
56233;SDS011;42141;53.240;6.580;2022-09-09T06:43:30;9.57;;;6.57;;
56233;SDS011;42141;53.240;6.580;2022-09-09T06:48:24;9.07;;;6.13;;
56233;SDS011;42141;53.240;6.580;2022-09-09T06:51:03;7.43;;;5.78;;
56233;SDS011;42141;53.240;6.580;2022-09-09T06:53:31;9.27;;;6.45;;
56233;SDS011;42141;53.240;6.580;2022-09-09T06:56:01;11.57;;;6.30;;
56233;SDS011;42141;53.240;6.580;2022-09-09T06:58:42;7.72;;;5.57;;
56233;SDS011;42141;53.240;6.580;2022-09-09T07:01:12;7.80;;;6.35;;
56233;SDS011;42141;53.240;6.580;2022-09-09T07:03:39;11.00;;;6.00;;
56233;SDS011;42141;53.240;6.580;2022-09-09T07:06:06;9.60;;;5.72;;
56233;SDS011;42141;53.240;6.580;2022-09-09T07:08:32;11.20;;;6.30;;
56233;SDS011;42141;53.240;6.580;2022-09-09T07:11:04;10.13;;;6.03;;
56233;SDS011;42141;53.240;6.580;2022-09-09T07:13:32;7.35;;;5.75;;
56233;SDS011;42141;53.240;6.580;2022-09-09T07:16:09;6.32;;;5.55;;
56233;SDS011;42141;53.240;6.580;2022-09-09T07:18:36;7.43;;;5.63;;
56233;SDS011;42141;53.240;6.580;2022-09-09T07:21:02;6.38;;;5.15;;
56233;SDS011;42141;53.240;6.580;2022-09-09T07:23:29;8.10;;;4.93;;
56233;SDS011;42141;53.240;6.580;2022-09-09T07:25:56;8.25;;;5.47;;
56233;SDS011;42141;53.240;6.580;2022-09-09T07:28:23;9.75;;;5.60;;
56233;SDS011;42141;53.240;6.580;2022-09-09T07:30:53;6.68;;;4.85;;
56233;SDS011;42141;53.240;6.580;2022-09-09T07:33:23;8.65;;;5.35;;
56233;SDS011;42141;53.240;6.580;2022-09-09T07:35:49;5.97;;;4.95;;
56233;SDS011;42141;53.240;6.580;2022-09-09T07:38:16;7.32;;;5.50;;
56233;SDS011;42141;53.240;6.580;2022-09-09T07:40:41;7.95;;;4.70;;
56233;SDS011;42141;53.240;6.580;2022-09-09T07:43:08;5.97;;;4.75;;
56233;SDS011;42141;53.240;6.580;2022-09-09T07:45:34;10.05;;;4.60;;
56233;SDS011;42141;53.240;6.580;2022-09-09T07:48:01;9.82;;;5.60;;
56233;SDS011;42141;53.240;6.580;2022-09-09T07:50:27;6.25;;;4.60;;
56233;SDS011;42141;53.240;6.580;2022-09-09T07:52:53;7.13;;;4.88;;
56233;SDS011;42141;53.240;6.580;2022-09-09T07:55:19;5.85;;;4.47;;
56233;SDS011;42141;53.240;6.580;2022-09-09T07:57:45;7.00;;;4.70;;
56233;SDS011;42141;53.240;6.580;2022-09-09T08:00:11;9.93;;;4.68;;
56233;SDS011;42141;53.240;6.580;2022-09-09T08:02:39;7.07;;;4.70;;
56233;SDS011;42141;53.240;6.580;2022-09-09T08:05:05;7.13;;;4.45;;
56233;SDS011;42141;53.240;6.580;2022-09-09T08:07:31;7.55;;;4.20;;
56233;SDS011;42141;53.240;6.580;2022-09-09T08:09:57;6.40;;;4.60;;
56233;SDS011;42141;53.240;6.580;2022-09-09T08:12:23;6.38;;;4.45;;
56233;SDS011;42141;53.240;6.580;2022-09-09T08:14:48;9.93;;;4.55;;
56233;SDS011;42141;53.240;6.580;2022-09-09T08:17:14;5.10;;;3.92;;
56233;SDS011;42141;53.240;6.580;2022-09-09T08:19:40;9.23;;;3.78;;
56233;SDS011;42141;53.240;6.580;2022-09-09T08:22:06;4.50;;;3.65;;
56233;SDS011;42141;53.240;6.580;2022-09-09T08:24:32;6.45;;;3.80;;
56233;SDS011;42141;53.240;6.580;2022-09-09T08:26:58;9.65;;;3.83;;
56233;SDS011;42141;53.240;6.580;2022-09-09T08:29:24;8.27;;;3.88;;
56233;SDS011;42141;53.240;6.580;2022-09-09T08:31:51;6.32;;;3.85;;
56233;SDS011;42141;53.240;6.580;2022-09-09T08:34:19;8.80;;;4.10;;
56233;SDS011;42141;53.240;6.580;2022-09-09T08:36:46;8.77;;;3.83;;
56233;SDS011;42141;53.240;6.580;2022-09-09T08:39:14;8.20;;;3.83;;
56233;SDS011;42141;53.240;6.580;2022-09-09T08:41:54;6.10;;;4.13;;
56233;SDS011;42141;53.240;6.580;2022-09-09T08:44:58;6.00;;;3.60;;
56233;SDS011;42141;53.240;6.580;2022-09-09T08:50:32;6.57;;;3.20;;
56233;SDS011;42141;53.240;6.580;2022-09-09T08:55:53;4.78;;;2.83;;
56233;SDS011;42141;53.240;6.580;2022-09-09T08:58:25;5.40;;;3.22;;
56233;SDS011;42141;53.240;6.580;2022-09-09T09:06:55;7.85;;;2.67;;
56233;SDS011;42141;53.240;6.580;2022-09-09T09:12:16;10.13;;;2.77;;
56233;SDS011;42141;53.240;6.580;2022-09-09T09:14:46;4.53;;;2.90;;
56233;SDS011;42141;53.240;6.580;2022-09-09T09:17:14;7.18;;;2.85;;
56233;SDS011;42141;53.240;6.580;2022-09-09T09:19:44;4.07;;;2.37;;
56233;SDS011;42141;53.240;6.580;2022-09-09T09:22:19;7.25;;;2.65;;
56233;SDS011;42141;53.240;6.580;2022-09-09T09:28:12;9.45;;;2.97;;
56233;SDS011;42141;53.240;6.580;2022-09-09T09:30:59;6.10;;;2.90;;
56233;SDS011;42141;53.240;6.580;2022-09-09T09:34:02;6.82;;;3.35;;
56233;SDS011;42141;53.240;6.580;2022-09-09T09:36:34;4.53;;;2.50;;
56233;SDS011;42141;53.240;6.580;2022-09-09T09:39:06;5.32;;;2.40;;
56233;SDS011;42141;53.240;6.580;2022-09-09T09:41:33;7.30;;;2.67;;
56233;SDS011;42141;53.240;6.580;2022-09-09T09:44:03;7.97;;;2.72;;
56233;SDS011;42141;53.240;6.580;2022-09-09T09:46:30;6.18;;;2.70;;
56233;SDS011;42141;53.240;6.580;2022-09-09T09:49:00;6.07;;;2.53;;
56233;SDS011;42141;53.240;6.580;2022-09-09T09:51:30;5.80;;;2.63;;
56233;SDS011;42141;53.240;6.580;2022-09-09T09:54:03;6.15;;;2.22;;
56233;SDS011;42141;53.240;6.580;2022-09-09T09:56:38;5.20;;;2.25;;
56233;SDS011;42141;53.240;6.580;2022-09-09T09:59:05;4.50;;;1.90;;
56233;SDS011;42141;53.240;6.580;2022-09-09T10:01:46;4.18;;;2.10;;
56233;SDS011;42141;53.240;6.580;2022-09-09T10:06:41;5.60;;;2.15;;
56233;SDS011;42141;53.240;6.580;2022-09-09T10:09:26;9.23;;;2.75;;
56233;SDS011;42141;53.240;6.580;2022-09-09T10:22:35;13.80;;;2.63;;
56233;SDS011;42141;53.240;6.580;2022-09-09T10:25:05;10.75;;;1.73;;
56233;SDS011;42141;53.240;6.580;2022-09-09T10:33:37;5.28;;;1.50;;
56233;SDS011;42141;53.240;6.580;2022-09-09T10:36:16;6.47;;;1.80;;
56233;SDS011;42141;53.240;6.580;2022-09-09T10:38:47;6.60;;;1.65;;
56233;SDS011;42141;53.240;6.580;2022-09-09T10:41:19;7.35;;;1.98;;
56233;SDS011;42141;53.240;6.580;2022-09-09T10:46:55;7.30;;;1.83;;
56233;SDS011;42141;53.240;6.580;2022-09-09T10:49:50;7.30;;;2.00;;
56233;SDS011;42141;53.240;6.580;2022-09-09T10:55:14;8.73;;;1.70;;
56233;SDS011;42141;53.240;6.580;2022-09-09T11:00:20;6.65;;;1.67;;
56233;SDS011;42141;53.240;6.580;2022-09-09T11:02:52;5.90;;;1.23;;
56233;SDS011;42141;53.240;6.580;2022-09-09T11:05:24;7.97;;;1.48;;
56233;SDS011;42141;53.240;6.580;2022-09-09T11:07:56;8.52;;;1.33;;
56233;SDS011;42141;53.240;6.580;2022-09-09T11:13:15;6.80;;;1.55;;
56233;SDS011;42141;53.240;6.580;2022-09-09T11:15:51;9.65;;;1.23;;
56233;SDS011;42141;53.240;6.580;2022-09-09T11:18:22;6.00;;;1.58;;
56233;SDS011;42141;53.240;6.580;2022-09-09T11:20:49;5.18;;;1.10;;
56233;SDS011;42141;53.240;6.580;2022-09-09T11:23:22;6.82;;;1.00;;
56233;SDS011;42141;53.240;6.580;2022-09-09T11:25:55;11.77;;;1.65;;
56233;SDS011;42141;53.240;6.580;2022-09-09T11:45:56;6.28;;;1.10;;
56233;SDS011;42141;53.240;6.580;2022-09-09T11:48:32;3.83;;;1.20;;
56233;SDS011;42141;53.240;6.580;2022-09-09T11:51:04;3.88;;;0.77;;
56233;SDS011;42141;53.240;6.580;2022-09-09T11:53:33;5.15;;;0.85;;
56233;SDS011;42141;53.240;6.580;2022-09-09T11:56:04;4.82;;;0.90;;
56233;SDS011;42141;53.240;6.580;2022-09-09T11:58:40;2.55;;;1.17;;
56233;SDS011;42141;53.240;6.580;2022-09-09T12:01:27;5.28;;;0.80;;
56233;SDS011;42141;53.240;6.580;2022-09-09T12:04:05;6.57;;;0.85;;
56233;SDS011;42141;53.240;6.580;2022-09-09T12:06:39;8.38;;;1.20;;
56233;SDS011;42141;53.240;6.580;2022-09-09T12:17:50;6.75;;;1.17;;
56233;SDS011;42141;53.240;6.580;2022-09-09T12:20:22;10.90;;;1.38;;
56233;SDS011;42141;53.240;6.580;2022-09-09T12:28:22;4.95;;;0.80;;
56233;SDS011;42141;53.240;6.580;2022-09-09T12:33:38;5.03;;;1.00;;
56233;SDS011;42141;53.240;6.580;2022-09-09T12:36:11;4.85;;;1.35;;
56233;SDS011;42141;53.240;6.580;2022-09-09T12:38:41;2.92;;;0.70;;
56233;SDS011;42141;53.240;6.580;2022-09-09T12:41:29;8.18;;;1.33;;
56233;SDS011;42141;53.240;6.580;2022-09-09T12:44:08;12.50;;;1.27;;
56233;SDS011;42141;53.240;6.580;2022-09-09T12:46:39;4.15;;;1.05;;
56233;SDS011;42141;53.240;6.580;2022-09-09T12:51:51;7.20;;;0.90;;
56233;SDS011;42141;53.240;6.580;2022-09-09T12:54:18;5.50;;;0.90;;
56233;SDS011;42141;53.240;6.580;2022-09-09T12:56:45;7.28;;;0.82;;
56233;SDS011;42141;53.240;6.580;2022-09-09T12:59:27;4.75;;;0.93;;
56233;SDS011;42141;53.240;6.580;2022-09-09T13:02:01;9.07;;;1.40;;
56233;SDS011;42141;53.240;6.580;2022-09-09T13:04:27;6.35;;;1.00;;
56233;SDS011;42141;53.240;6.580;2022-09-09T13:07:04;3.20;;;0.77;;
56233;SDS011;42141;53.240;6.580;2022-09-09T13:09:35;8.80;;;0.90;;
56233;SDS011;42141;53.240;6.580;2022-09-09T13:12:01;5.18;;;1.05;;
56233;SDS011;42141;53.240;6.580;2022-09-09T13:14:32;3.75;;;0.75;;
56233;SDS011;42141;53.240;6.580;2022-09-09T13:17:02;5.30;;;1.15;;
56233;SDS011;42141;53.240;6.580;2022-09-09T13:19:31;6.57;;;1.10;;
56233;SDS011;42141;53.240;6.580;2022-09-09T13:22:05;7.60;;;1.20;;
56233;SDS011;42141;53.240;6.580;2022-09-09T13:24:38;3.92;;;0.60;;
56233;SDS011;42141;53.240;6.580;2022-09-09T13:27:05;4.25;;;0.85;;
56233;SDS011;42141;53.240;6.580;2022-09-09T13:29:53;6.05;;;0.98;;
56233;SDS011;42141;53.240;6.580;2022-09-09T13:32:20;6.40;;;1.55;;
56233;SDS011;42141;53.240;6.580;2022-09-09T13:34:57;3.55;;;1.00;;
56233;SDS011;42141;53.240;6.580;2022-09-09T13:40:02;6.13;;;0.82;;
56233;SDS011;42141;53.240;6.580;2022-09-09T13:42:31;6.90;;;0.93;;
56233;SDS011;42141;53.240;6.580;2022-09-09T13:45:00;8.75;;;1.50;;
56233;SDS011;42141;53.240;6.580;2022-09-09T13:47:34;7.45;;;1.42;;
56233;SDS011;42141;53.240;6.580;2022-09-09T13:50:20;5.55;;;0.80;;
56233;SDS011;42141;53.240;6.580;2022-09-09T13:52:48;5.35;;;1.40;;
56233;SDS011;42141;53.240;6.580;2022-09-09T13:55:16;4.05;;;0.90;;
56233;SDS011;42141;53.240;6.580;2022-09-09T13:57:59;8.40;;;0.75;;
56233;SDS011;42141;53.240;6.580;2022-09-09T14:00:28;4.30;;;0.88;;
56233;SDS011;42141;53.240;6.580;2022-09-09T14:02:56;5.82;;;0.95;;
56233;SDS011;42141;53.240;6.580;2022-09-09T14:05:21;3.63;;;0.90;;
56233;SDS011;42141;53.240;6.580;2022-09-09T14:07:48;4.32;;;0.68;;
56233;SDS011;42141;53.240;6.580;2022-09-09T14:10:16;4.47;;;0.80;;
56233;SDS011;42141;53.240;6.580;2022-09-09T14:12:42;6.75;;;0.75;;
56233;SDS011;42141;53.240;6.580;2022-09-09T14:15:09;4.10;;;0.73;;
56233;SDS011;42141;53.240;6.580;2022-09-09T14:17:35;2.17;;;0.50;;
56233;SDS011;42141;53.240;6.580;2022-09-09T14:20:02;3.85;;;0.50;;
56233;SDS011;42141;53.240;6.580;2022-09-09T14:22:30;3.20;;;0.40;;
56233;SDS011;42141;53.240;6.580;2022-09-09T14:24:56;2.83;;;0.40;;
56233;SDS011;42141;53.240;6.580;2022-09-09T14:27:22;3.17;;;0.75;;
56233;SDS011;42141;53.240;6.580;2022-09-09T14:29:48;12.93;;;0.75;;
56233;SDS011;42141;53.240;6.580;2022-09-09T14:32:14;18.45;;;1.55;;
56233;SDS011;42141;53.240;6.580;2022-09-09T14:34:39;3.05;;;0.43;;
56233;SDS011;42141;53.240;6.580;2022-09-09T14:37:05;2.40;;;0.50;;
56233;SDS011;42141;53.240;6.580;2022-09-09T14:39:31;2.10;;;0.40;;
56233;SDS011;42141;53.240;6.580;2022-09-09T14:41:57;2.65;;;0.30;;
56233;SDS011;42141;53.240;6.580;2022-09-09T14:44:23;2.63;;;0.50;;
56233;SDS011;42141;53.240;6.580;2022-09-09T14:46:49;2.30;;;0.60;;
56233;SDS011;42141;53.240;6.580;2022-09-09T14:49:15;1.27;;;0.45;;
56233;SDS011;42141;53.240;6.580;2022-09-09T14:51:41;0.70;;;0.20;;
56233;SDS011;42141;53.240;6.580;2022-09-09T14:54:07;3.45;;;0.35;;
56233;SDS011;42141;53.240;6.580;2022-09-09T14:56:33;1.48;;;0.35;;
56233;SDS011;42141;53.240;6.580;2022-09-09T14:59:02;1.67;;;0.30;;
56233;SDS011;42141;53.240;6.580;2022-09-09T15:01:29;0.45;;;0.10;;
56233;SDS011;42141;53.240;6.580;2022-09-09T15:03:59;2.65;;;0.40;;
56233;SDS011;42141;53.240;6.580;2022-09-09T15:06:27;4.30;;;0.30;;
56233;SDS011;42141;53.240;6.580;2022-09-09T15:08:55;0.80;;;0.20;;
56233;SDS011;42141;53.240;6.580;2022-09-09T15:11:23;2.45;;;0.40;;
56233;SDS011;42141;53.240;6.580;2022-09-09T15:13:50;5.20;;;0.50;;
56233;SDS011;42141;53.240;6.580;2022-09-09T15:16:18;2.28;;;0.55;;
56233;SDS011;42141;53.240;6.580;2022-09-09T15:18:45;1.98;;;0.47;;
56233;SDS011;42141;53.240;6.580;2022-09-09T15:21:12;4.90;;;0.50;;
56233;SDS011;42141;53.240;6.580;2022-09-09T15:23:40;4.05;;;0.52;;
56233;SDS011;42141;53.240;6.580;2022-09-09T15:26:06;2.35;;;0.75;;
56233;SDS011;42141;53.240;6.580;2022-09-09T15:28:34;4.20;;;0.73;;
56233;SDS011;42141;53.240;6.580;2022-09-09T15:31:04;4.03;;;0.82;;
56233;SDS011;42141;53.240;6.580;2022-09-09T15:33:34;2.78;;;0.80;;
56233;SDS011;42141;53.240;6.580;2022-09-09T15:39:03;7.03;;;0.88;;
56233;SDS011;42141;53.240;6.580;2022-09-09T15:41:32;4.10;;;1.00;;
56233;SDS011;42141;53.240;6.580;2022-09-09T15:43:58;2.22;;;0.60;;
56233;SDS011;42141;53.240;6.580;2022-09-09T15:51:39;3.30;;;0.57;;
56233;SDS011;42141;53.240;6.580;2022-09-09T15:54:06;4.68;;;0.68;;
56233;SDS011;42141;53.240;6.580;2022-09-09T15:56:32;2.45;;;0.60;;
56233;SDS011;42141;53.240;6.580;2022-09-09T15:58:58;5.20;;;0.60;;
56233;SDS011;42141;53.240;6.580;2022-09-09T16:01:25;1.45;;;0.52;;
56233;SDS011;42141;53.240;6.580;2022-09-09T16:03:52;4.57;;;0.55;;
56233;SDS011;42141;53.240;6.580;2022-09-09T16:06:19;3.55;;;0.63;;
56233;SDS011;42141;53.240;6.580;2022-09-09T16:08:47;4.88;;;1.58;;
56233;SDS011;42141;53.240;6.580;2022-09-09T16:11:27;4.97;;;0.65;;
56233;SDS011;42141;53.240;6.580;2022-09-09T16:13:57;3.47;;;0.60;;
56233;SDS011;42141;53.240;6.580;2022-09-09T16:16:24;1.30;;;0.40;;
56233;SDS011;42141;53.240;6.580;2022-09-09T16:19:25;2.67;;;0.50;;
56233;SDS011;42141;53.240;6.580;2022-09-09T16:21:45;2.25;;;0.45;;
56233;SDS011;42141;53.240;6.580;2022-09-09T16:24:13;2.95;;;0.80;;
56233;SDS011;42141;53.240;6.580;2022-09-09T16:26:41;1.60;;;0.30;;
56233;SDS011;42141;53.240;6.580;2022-09-09T16:29:10;3.75;;;0.70;;
56233;SDS011;42141;53.240;6.580;2022-09-09T16:31:37;2.25;;;0.30;;
56233;SDS011;42141;53.240;6.580;2022-09-09T16:34:03;1.77;;;0.40;;
56233;SDS011;42141;53.240;6.580;2022-09-09T16:36:29;3.05;;;0.55;;
56233;SDS011;42141;53.240;6.580;2022-09-09T16:38:57;3.40;;;0.70;;
56233;SDS011;42141;53.240;6.580;2022-09-09T16:41:24;3.38;;;0.80;;
56233;SDS011;42141;53.240;6.580;2022-09-09T16:43:54;5.03;;;0.70;;
56233;SDS011;42141;53.240;6.580;2022-09-09T16:46:21;3.33;;;0.55;;
56233;SDS011;42141;53.240;6.580;2022-09-09T16:48:49;3.03;;;0.52;;
56233;SDS011;42141;53.240;6.580;2022-09-09T16:51:16;2.15;;;0.65;;
56233;SDS011;42141;53.240;6.580;2022-09-09T16:53:43;3.25;;;0.65;;
56233;SDS011;42141;53.240;6.580;2022-09-09T16:56:11;4.88;;;0.82;;
56233;SDS011;42141;53.240;6.580;2022-09-09T16:58:39;3.67;;;0.80;;
56233;SDS011;42141;53.240;6.580;2022-09-09T17:01:05;2.75;;;0.80;;
56233;SDS011;42141;53.240;6.580;2022-09-09T17:03:31;2.33;;;0.70;;
56233;SDS011;42141;53.240;6.580;2022-09-09T17:05:58;3.40;;;0.70;;
56233;SDS011;42141;53.240;6.580;2022-09-09T17:08:27;6.22;;;0.57;;
56233;SDS011;42141;53.240;6.580;2022-09-09T17:10:56;3.83;;;0.80;;
56233;SDS011;42141;53.240;6.580;2022-09-09T17:13:22;5.78;;;0.77;;
56233;SDS011;42141;53.240;6.580;2022-09-09T17:15:48;3.47;;;0.75;;
56233;SDS011;42141;53.240;6.580;2022-09-09T17:18:14;2.30;;;0.60;;
56233;SDS011;42141;53.240;6.580;2022-09-09T17:20:41;2.47;;;0.70;;
56233;SDS011;42141;53.240;6.580;2022-09-09T17:23:10;5.25;;;0.90;;